Koji Ueda

Recruteur - Omiya Ardija
3 Déc 2028
Dimanche
Processus

Personnalité

Adaptabilité (18) Ambition (19) Controverse (17) Loyauté (3) Pression (2) Professionnalisme (10) Sportivité (10) Tempérament (19)

Profil

Style d'entraînement Démocratique
Diplôme Continental C
Détermination 9
Gestion des joueurs 10
Motivation 6
Discipline 11
Satisfaction professionnelle
100%
Fatigue
0%
Rôle Recruteur
Salaire 60.0K p/s
Contrat 14.03.2030

Performance

Comportement Bon
Efficacité de l'entraînement
35%
Développement des joueurs
45%
Prévention des blessures
20%
Mise en place tactique
40%

Événements récents

A évalué un joueur maintenant
A participé à une réunion de recrutement maintenant
A recommandé une cible de transfert maintenant
A évalué un joueur maintenant
A évalué un joueur 7j
A évalué un joueur 7j
A évalué un joueur 7j
A évalué un joueur 7j

Suivi en cours

147
Joueur Club Statut Capacité Confiance Observé Dernière observation Dernier vote
Chukwuemeka Obioma Abia Warriors Actif 109 / 86 40% 3 02.12.2028 -
Yota Komi Kashiwa Reysol Actif 122 / 115 40% 3 02.12.2028 -
Nicolás Ferreira Wanderers Actif 115 / 110 40% 7 01.12.2028 -
Luciano Cosentino Wanderers Actif 129 / 119 40% 5 01.12.2028 -
Chineme Chinonso Ikorodu City Actif 95 / 93 40% 1 01.12.2028 -
Ruyery Blanco Alianza Petrolera Actif 115 / 115 40% 2 28.11.2028 -
Esteban Obregón Montevideo City Torque Actif 113 / 110 40% 9 28.11.2028 -
Diego Herazo Independiente Medellin Actif 112 / 101 40% 2 28.11.2028 -
Andrés Carreño Aguilas Doradas Actif 115 / 102 40% 3 27.11.2028 -
Shunta Araki Vegalta Sendai Actif 114 / 109 40% 3 26.11.2028 -
Juan David Rueda Alianza Petrolera Actif 120 / 100 40% 2 26.11.2028 -
Fabri Vitória Actif 119 / 116 40% 2 25.11.2028 -
Juan Hurtado Alianza Petrolera Actif 133 / 119 40% 3 23.11.2028 -
James Emo Rangers International Actif 87 / 80 40% 2 23.11.2028 -
Lisandro Cabrera Maipú Actif 121 / 122 40% 2 22.11.2028 -
Jeinner Fuentes Deportes Tolima Actif 116 / 120 40% 1 22.11.2028 -
Julian Herrera Cortulua Actif 126 / 126 40% 7 21.11.2028 -
Alejandro Piedrahita Deportivo Pereira Actif 130 / 118 40% 1 21.11.2028 -
Waheed Adebayo Rangers International Actif 96 / 104 40% 1 21.11.2028 -
Daniel Barrea Godoy Cruz Actif 123 / 124 40% 3 18.11.2028 -
Nicolás Medina Atlanta Actif 109 / 102 40% 1 17.11.2028 -
Diego Castillo Aguilas Doradas Actif 109 / 97 40% 6 16.11.2028 -
Jhonier Blanco Fortaleza CEIF Actif 110 / 108 40% 2 16.11.2028 -
Enzo González Defensores Actif 107 / 116 40% 5 15.11.2028 -
Alejo Cruz Juventud Actif 130 / 113 40% 2 15.11.2028 -
Mauricio Márquez Caracas Actif 100 / 98 40% 3 13.11.2028 -
Patrick Preciado Deportivo Pasto Actif 116 / 114 40% 4 13.11.2028 -
Ramiro Ruiz Rodríguez Atlético Tucumán Actif 117 / 117 40% 1 11.11.2028 -
Jorge Obregón Deportivo Pasto Actif 121 / 119 40% 2 10.11.2028 -
Adeshina Gata Kwara United Actif 84 / 95 40% 1 10.11.2028 -
Nicolás Cordero Aldosivi Actif 125 / 125 40% 1 07.11.2028 -
Marco Miori Alvarado Actif 121 / 113 40% 1 07.11.2028 -
Alexander Díaz Deportivo Riestra Actif 126 / 128 40% 4 04.11.2028 -
José Balza Deportivo Tachira Actif 112 / 106 40% 1 02.11.2028 -
Werik Popo Avispa Fukuoka Actif 116 / 112 40% 2 01.11.2028 -
Samuel Anakwe Remo Stars Actif 103 / 92 40% 1 01.11.2028 -
Agustín Rodríguez Juventud Actif 133 / 136 40% 4 31.10.2028 -
Franco García Molde Actif 111 / 109 40% 1 31.10.2028 -
Leandro Suhr Boston River Actif 115 / 106 40% 2 28.10.2028 -
Jonás Luna Wanderers Actif 117 / 115 40% 2 28.10.2028 -
Lyle Foster Rosenborg Actif 144 / 139 40% 1 28.10.2028 -
Rodrigo Auzmendi Banfield Actif 114 / 133 40% 1 27.10.2028 -
José Barreto Quilmes Actif 113 / 123 40% 2 26.10.2028 -
Sunusi Ibrahim Vegalta Sendai Actif 116 / 110 40% 1 26.10.2028 -
Santiago Sala Güemes Actif 114 / 113 40% 4 25.10.2028 -
Miguel Pereira Persebaya Actif 126 / 116 40% 1 25.10.2028 -
Emiliano Gómez Boston River Actif 115 / 112 40% 4 19.10.2028 -
Facundo Krüger Temperley Actif 121 / 110 40% 1 19.10.2028 -
Jhon Murillo Jaguares Actif 124 / 107 40% 1 18.10.2028 -
Michael Nike Patriotas Actif 101 / 97 40% 2 16.10.2028 -
Sebastián Cocimano Nueva Chicago Actif 115 / 114 40% 1 16.10.2028 -
Mauro Valiente Estudiantes Actif 110 / 117 40% 3 15.10.2028 -
Okardi Inikurogha Bayelsa United Actif 104 / 101 40% 2 15.10.2028 -
Gianluca Pugliese Güemes Actif 122 / 119 40% 3 14.10.2028 -
Agustín Gallo Tristán Suárez Actif 122 / 115 40% 1 11.10.2028 -
Tomás Jerez San Miguel Actif 113 / 116 40% 1 08.10.2028 -
Timothy Zechariah Rivers United Actif 98 / 91 40% 2 07.10.2028 -
Richard Figueroa Deportivo Lara Actif 115 / 109 40% 1 08.09.2028 -
Kelvin Flórez Deportes Tolima Actif 116 / 126 40% 2 05.09.2028 -
Augusto Berrondo Tristán Suárez Actif 115 / 119 40% 1 05.09.2028 -
Jorge Rivaldo Real Cartagena Actif 129 / 113 40% 2 04.09.2028 -
Francesco Petito Dolomiti Bellunesi Actif 101 / 114 40% 3 19.08.2028 -
Vanja Vlahović Spezia Actif 133 / 121 40% 1 19.08.2028 -
Simone Mazzocchi Cosenza Actif 134 / 111 40% 5 18.08.2028 -
Guillaume Furrer Lecco Actif 110 / 102 40% 3 18.08.2028 -
Adam Jakobsen Castellón Actif 124 / 124 40% 10 14.08.2028 -
Kaoru Osako Gamba Osaka Négociation 91 / 103 72% 1 14.08.2028 -
Mattia Iori Lumezzane Actif 107 / 114 40% 1 13.08.2028 -
Luca Mazzeo Picerno Actif 114 / 112 40% 1 12.08.2028 -
Jack Vale Sorrento Actif 98 / 116 40% 4 10.08.2028 -
Camillo Tavernelli Arezzo Actif 121 / 115 40% 3 10.08.2028 -
Liam Cullen Swansea City Actif 128 / 131 40% 5 09.08.2028 -
Carlos Gugenheim Grimsby Town Actif 110 / 105 40% 3 09.08.2028 -
Kylian Kouassi Colchester United Actif 102 / 96 40% 5 08.08.2028 -
Luca Vido Union Brescia Actif 117 / 105 40% 1 08.08.2028 -
Johnny Kenny Preston Actif 126 / 132 40% 6 07.08.2028 -
Tyrese Shade Burton Albion Actif 103 / 118 40% 5 07.08.2028 -
Aaron Collins Milton Keynes Dons Actif 121 / 126 40% 1 07.08.2028 -
Job Ochieng Real Sociedad Actif 119 / 104 40% 5 20.07.2028 -
Harvey Blair Portsmouth Actif 133 / 123 40% 1 20.07.2028 -
Will Davies Fleetwood Town Actif 104 / 92 40% 1 18.07.2028 -
Dale Taylor Blackpool Actif 125 / 127 40% 2 16.07.2028 -
Matteo Rover Reggiana Actif 129 / 115 40% 2 16.07.2028 -
Calum Kavanagh Oldham Athletic Actif 107 / 110 40% 4 15.07.2028 -
Justin Obikwu Queens Park Rangers Actif 105 / 100 40% 6 15.07.2028 -
Emanuele Schimmenti Potenza Actif 129 / 110 40% 1 15.07.2028 -
Tyler Roberts Mansfield Town Actif 102 / 106 40% 1 14.07.2028 -
Tyler Walton Bromley Actif 99 / 108 40% 5 13.07.2028 -
Ole Romeny Oxford United Actif 125 / 122 40% 4 13.07.2028 -
Marco Tumminello Benevento Actif 112 / 109 40% 4 13.07.2028 -
Sam Dalby Bolton Wanderers Actif 113 / 119 40% 4 12.07.2028 -
Álvaro García Castellón Actif 120 / 134 40% 5 11.07.2028 -
Danny Butterworth Accrington Stanley Actif 97 / 108 40% 2 09.07.2028 -
Sam Nombe Milton Keynes Dons Actif 118 / 116 40% 10 08.07.2028 -
Emanuele Scipioni Monopoli Actif 119 / 110 40% 1 08.07.2028 -
Ante Crnac Bristol Rovers Actif 125 / 129 40% 4 05.07.2028 -
Dany Jean Torreense Actif 119 / 106 40% 5 03.07.2028 -
Ekain Orobengoa Real Sociedad Actif 101 / 118 40% 1 03.07.2028 -
Alassana Jatta Notts County Actif 112 / 104 40% 1 01.07.2028 -
Ryan Graydon Salford City Actif 114 / 107 40% 5 30.06.2028 -
Alan Cisnero Exeter City Actif 105 / 100 40% 1 30.06.2028 -
Admir Bristrić Cambridge United Actif 122 / 118 40% 2 26.06.2028 -
George Lloyd Shrewsbury Town Actif 103 / 101 40% 1 26.06.2028 -
Rayan Kolli Queens Park Rangers Actif 124 / 116 40% 1 26.06.2028 -
Josh Stokes Bristol City Actif 116 / 132 40% 3 25.06.2028 -
Layton Stewart Barnet Actif 110 / 111 40% 3 22.06.2028 -
Luca Moro Padova Actif 136 / 121 40% 1 22.06.2028 -
Álex Millán Leganés Actif 109 / 113 40% 2 20.06.2028 -
Manuel De Luca Cremonese Actif 136 / 127 40% 3 19.06.2028 -
Louis Appéré Cambridge United Actif 115 / 94 40% 1 16.06.2028 -
Joshua Ajala Walsall Actif 110 / 106 40% 4 15.06.2028 -
Mees Rijks Bristol Rovers Actif 128 / 116 40% 5 15.06.2028 -
Anthony Scully Shrewsbury Town Actif 112 / 97 40% 4 13.06.2028 -
Armstrong Oko-Flex Levski Actif 123 / 129 40% 5 11.06.2028 -
Olaf Kobacki Sheffield Wednesday Actif 106 / 124 40% 4 11.06.2028 -
Jalen Blesa Oliveirense Actif 133 / 118 40% 4 11.06.2028 -
Kaye Furo Reading Actif 134 / 137 40% 2 09.06.2028 -
Fábio Jaló Barnsley Actif 110 / 101 40% 1 07.06.2028 -
Miro Arsenal Tula Actif 122 / 116 40% 11 05.06.2028 -
Timur Suleimanov Nizhniy Novgorod Actif 119 / 111 40% 3 05.06.2028 -
Rocco Vata Watford Actif 131 / 121 40% 1 29.05.2028 -
Kleis Bozhanaj Modena Actif 128 / 126 40% 3 25.05.2028 -
Jorge Delgado Cultural Leonesa Actif 109 / 125 40% 3 24.05.2028 -
Fernando Penafiel Actif 128 / 134 40% 4 20.05.2028 -
Jorge Cabezas Hurtado Watford Actif 115 / 115 40% 4 15.05.2028 -
Kuki Zalazar Ceuta Actif 125 / 119 40% 1 05.05.2028 -
Gabriele Gori Ascoli Actif 111 / 103 40% 1 03.05.2028 -
Christian Saydee Wigan Athletic Actif 128 / 109 40% 1 28.04.2028 -
Pau Sans Zaragoza Actif 120 / 122 40% 1 28.04.2028 -
Ondřej Lingr Korona Actif 135 / 122 40% 2 26.04.2028 -
Zé Leite Moreirense Actif 114 / 127 40% 2 24.04.2028 -
David Ankeye Zeleznicar Pancevo Actif 118 / 112 40% 1 23.04.2028 -
Vyacheslav Grulev Nizhniy Novgorod Actif 109 / 117 40% 1 17.04.2028 -
Wendel Silva Santa Clara Actif 122 / 115 40% 2 14.04.2028 -
Bashar Musa US Forces Armees Actif 95 / 103 40% 2 12.04.2028 -
Dawda Camara Alverca Actif 131 / 121 40% 1 12.04.2028 -
Figueiredo Alverca Actif 145 / 131 40% 1 05.04.2028 -
Adam Idah Swansea City Actif 126 / 125 40% 1 04.04.2028 -
Matheus Davó Maccabi Netanya Actif 134 / 111 40% 1 02.04.2028 -
Seidu Basit Ashanti Gold Actif 102 / 89 40% 2 01.04.2028 -
Guilherme Neiva AVS Actif 104 / 117 40% 1 29.03.2028 -
André Lacximicant Estoril Praia Actif 127 / 111 40% 1 24.03.2028 -
Brayan Gil Baltika Actif 133 / 116 40% 2 22.03.2028 -
Juan Manuel Boselli Rubin Actif 128 / 119 40% 1 21.03.2028 -
Wesley Pomba Rukh Actif 112 / 116 40% 1 20.03.2028 -
Kahiser Lenis Ceará Actif 127 / 117 40% 1 18.03.2028 -
Yuji Ono Albirex Niigata Actif 104 / 108 65% 1 22.02.2027 Approuver